Time;durP1;ratioP1;P1;durP2;ratioP2;P2;SDS_P1;SDS_P2;PMS_P1;PMS_P2;Temp;Humidity;BMP_temperature;BMP_pressure;BME280_temperature;BME280_humidity;BME280_pressure;Samples;Min_cycle;Max_cycle;Signal;HPM_P1;HPM_P2
2021/10/26 00:02:14;;;;;;;;;18.75;15.50;;;;;16.51;49.40;99039.41;4932638;28;103995;-88
2021/10/26 00:04:41;;;;;;;;;17.75;16.75;;;;;16.51;49.80;99044.03;4913305;28;102264;-88
2021/10/26 00:07:08;;;;;;;;;17.00;15.75;;;;;16.48;50.41;99045.28;4916115;28;102120;-89
2021/10/26 00:09:35;;;;;;;;;16.75;13.75;;;;;16.46;49.42;99035.69;4950422;28;103738;-88
2021/10/26 00:12:03;;;;;;;;;19.00;14.25;;;;;16.44;50.17;99041.34;4950855;28;104087;-88
2021/10/26 00:14:30;;;;;;;;;16.25;14.75;;;;;16.44;49.66;99037.78;4946030;28;104045;-88
2021/10/26 00:16:58;;;;;;;;;17.75;16.75;;;;;16.42;49.59;99035.31;4944219;28;102202;-88
2021/10/26 00:19:25;;;;;;;;;16.25;14.75;;;;;16.41;49.98;99033.63;4952031;28;103773;-88
2021/10/26 00:21:52;;;;;;;;;18.00;14.75;;;;;16.40;49.76;99039.31;4955672;28;104248;-88
2021/10/26 00:24:19;;;;;;;;;15.50;14.00;;;;;16.38;50.20;99033.25;4951216;28;102467;-88
2021/10/26 00:26:47;;;;;;;;;20.00;14.50;;;;;16.38;50.37;99036.00;4936706;28;103357;-88
2021/10/26 00:29:14;;;;;;;;;18.75;16.50;;;;;16.36;50.33;99028.03;4957172;28;104370;-88
2021/10/26 00:31:42;;;;;;;;;15.00;13.75;;;;;16.36;50.02;99027.19;4946347;28;104506;-88
2021/10/26 00:34:08;;;;;;;;;18.75;14.25;;;;;16.36;49.68;99035.38;4942416;28;102235;-88
2021/10/26 00:36:35;;;;;;;;;19.00;14.25;;;;;16.33;49.54;99023.03;4937630;28;102253;-88
2021/10/26 00:39:03;;;;;;;;;16.00;14.75;;;;;16.34;49.88;99032.06;4944582;28;102606;-88
2021/10/26 00:41:30;;;;;;;;;15.00;13.50;;;;;16.31;49.99;99027.88;4945478;28;104307;-88
2021/10/26 00:43:57;;;;;;;;;19.75;16.50;;;;;16.31;50.17;99027.03;4946533;28;103041;-89
2021/10/26 00:46:32;;;;;;;;;16.00;13.00;;;;;16.30;50.02;99022.66;4948713;28;103081;-89
2021/10/26 00:49:00;;;;;;;;;19.50;14.50;;;;;16.29;50.17;99018.25;4916519;28;102250;-88
2021/10/26 00:51:28;;;;;;;;;17.50;14.00;;;;;16.27;49.86;99026.66;4939907;28;104122;-88
2021/10/26 00:53:58;;;;;;;;;16.50;14.75;;;;;16.29;49.63;99023.72;4950901;28;102198;-88
2021/10/26 00:56:26;;;;;;;;;15.00;13.50;;;;;16.27;50.03;99020.38;4925564;28;102436;-88
2021/10/26 00:58:53;;;;;;;;;17.50;15.50;;;;;16.25;49.59;99017.03;4946918;28;102338;-89
2021/10/26 01:01:20;;;;;;;;;17.50;13.75;;;;;16.25;50.27;99017.88;4905912;28;106643;-89
2021/10/26 01:03:47;;;;;;;;;22.00;15.75;;;;;16.22;50.09;99023.78;4904144;28;109351;-89
2021/10/26 01:06:14;;;;;;;;;22.00;17.25;;;;;16.21;49.62;99013.91;4918993;28;103596;-88
2021/10/26 01:08:41;;;;;;;;;17.00;14.75;;;;;16.21;49.82;99019.38;4940098;28;102656;-89
2021/10/26 01:11:08;;;;;;;;;16.75;15.25;;;;;16.20;49.94;99015.00;4925337;28;107684;-88
2021/10/26 01:13:36;;;;;;;;;16.25;13.75;;;;;16.20;49.32;99017.72;4915250;28;102846;-88
2021/10/26 01:16:05;;;;;;;;;16.75;13.00;;;;;16.20;49.85;99023.19;4950378;28;106295;-88
2021/10/26 01:18:32;;;;;;;;;15.50;12.75;;;;;16.20;49.73;99011.44;4941051;28;104257;-89
2021/10/26 01:20:59;;;;;;;;;17.25;16.00;;;;;16.18;49.99;99025.28;4954275;28;104057;-88
2021/10/26 01:23:27;;;;;;;;;15.75;13.25;;;;;16.20;49.95;99014.16;4957092;28;102445;-88
2021/10/26 01:25:54;;;;;;;;;23.00;16.75;;;;;16.17;49.45;99017.31;4952836;28;102109;-89
2021/10/26 01:28:21;;;;;;;;;18.75;16.00;;;;;16.16;49.68;99026.59;4936740;28;102821;-89
2021/10/26 01:30:49;;;;;;;;;21.25;19.25;;;;;16.14;49.51;99023.25;4950724;28;105222;-88
2021/10/26 01:33:16;;;;;;;;;18.50;18.00;;;;;16.13;50.06;99027.03;4943496;28;102901;-88
2021/10/26 01:35:43;;;;;;;;;17.25;14.50;;;;;16.12;50.15;99019.91;4946709;28;103392;-88
2021/10/26 01:38:11;;;;;;;;;16.00;14.75;;;;;16.10;49.78;99017.41;4949209;28;102616;-89
2021/10/26 01:40:38;;;;;;;;;14.25;14.25;;;;;16.07;50.16;99026.88;4953195;28;104555;-88
2021/10/26 01:43:05;;;;;;;;;19.00;16.75;;;;;16.06;49.40;99018.94;4952245;28;102169;-88
2021/10/26 01:45:32;;;;;;;;;19.50;16.50;;;;;16.07;49.54;99026.06;4941353;28;103449;-88
2021/10/26 01:47:59;;;;;;;;;14.50;14.00;;;;;16.05;49.29;99019.97;4955949;28;102214;-88
2021/10/26 01:50:26;;;;;;;;;20.75;16.25;;;;;16.05;49.41;99029.00;4953532;28;109062;-88
2021/10/26 01:52:54;;;;;;;;;16.75;15.25;;;;;16.05;49.47;99026.28;4958707;28;102486;-88
2021/10/26 01:55:21;;;;;;;;;18.75;17.50;;;;;16.03;49.34;99025.66;4954682;28;102626;-88
2021/10/26 01:57:48;;;;;;;;;18.00;16.75;;;;;16.03;49.95;99025.66;4957505;28;102935;-88
2021/10/26 02:00:18;;;;;;;;;20.75;19.25;;;;;16.03;49.68;99024.81;4955736;28;104212;-88
2021/10/26 02:02:46;;;;;;;;;16.75;15.75;;;;;16.02;49.31;99026.72;4962952;28;103669;-89
2021/10/26 02:05:13;;;;;;;;;20.00;16.50;;;;;16.02;49.77;99026.72;4952100;28;103460;-88
2021/10/26 02:07:40;;;;;;;;;18.25;15.25;;;;;16.00;49.34;99026.09;4950506;28;105217;-88
2021/10/26 02:10:08;;;;;;;;;24.00;17.00;;;;;16.00;49.36;99023.38;4953849;28;104337;-89
2021/10/26 02:12:35;;;;;;;;;18.00;17.25;;;;;15.99;49.66;99023.59;4948502;28;102280;-89
2021/10/26 02:15:03;;;;;;;;;19.25;17.75;;;;;15.96;49.52;99019.44;4955204;28;102446;-88
2021/10/26 02:17:30;;;;;;;;;18.75;17.25;;;;;15.97;49.75;99023.00;4960313;28;102159;-89
2021/10/26 02:19:57;;;;;;;;;17.75;15.75;;;;;15.95;49.86;99020.50;4956002;28;108979;-88
2021/10/26 02:22:24;;;;;;;;;19.75;17.50;;;;;15.94;49.57;99018.81;4952233;28;102445;-88
2021/10/26 02:24:51;;;;;;;;;19.75;17.75;;;;;15.93;49.49;99019.91;4943984;28;103724;-88
2021/10/26 02:27:18;;;;;;;;;18.75;16.50;;;;;15.92;49.71;99020.94;4958335;28;102243;-89
2021/10/26 02:29:45;;;;;;;;;16.00;15.50;;;;;15.91;49.31;99016.56;4948925;28;104102;-89
2021/10/26 02:32:12;;;;;;;;;7.50;6.75;;;;;15.90;49.60;99025.78;4957940;28;103373;-89
2021/10/26 02:34:39;;;;;;;;;20.00;19.00;;;;;15.89;49.87;99024.13;4953371;28;102578;-89
2021/10/26 02:37:06;;;;;;;;;22.50;18.50;;;;;15.88;49.65;99022.47;4951452;28;103481;-88
2021/10/26 02:39:33;;;;;;;;;19.00;17.25;;;;;15.88;49.34;99022.47;4960087;28;104080;-88
2021/10/26 02:42:01;;;;;;;;;21.50;18.50;;;;;15.89;49.31;99023.31;4962274;28;102263;-89
2021/10/26 02:44:27;;;;;;;;;17.75;15.25;;;;;15.89;49.23;99031.47;4949375;28;104323;-89
2021/10/26 02:46:54;;;;;;;;;18.00;15.50;;;;;15.87;49.57;99028.97;4949034;28;102573;-89
2021/10/26 02:49:21;;;;;;;;;19.00;15.00;;;;;15.86;49.90;99035.47;4954554;28;104076;-89
2021/10/26 02:51:48;;;;;;;;;19.00;16.25;;;;;15.85;50.50;99044.72;4951280;28;102950;-88
2021/10/26 02:54:15;;;;;;;;;18.50;15.50;;;;;15.84;49.68;99043.06;4949605;28;102150;-89
2021/10/26 02:56:43;;;;;;;;;17.75;16.50;;;;;15.83;49.51;99035.94;4957268;28;104160;-89
2021/10/26 02:59:10;;;;;;;;;18.25;16.00;;;;;15.83;49.68;99035.09;4947098;28;104135;-89
2021/10/26 03:01:37;;;;;;;;;18.50;16.25;;;;;15.83;49.80;99038.66;4932913;28;104206;-88
2021/10/26 03:04:04;;;;;;;;;19.00;16.75;;;;;15.83;49.38;99041.38;4949085;28;102560;-88
2021/10/26 03:06:31;;;;;;;;;20.25;17.50;;;;;15.80;49.73;99044.56;4961792;28;102607;-89
2021/10/26 03:08:58;;;;;;;;;18.75;16.00;;;;;15.78;49.39;99038.50;4950315;28;108725;-88
2021/10/26 03:11:26;;;;;;;;;17.75;16.25;;;;;15.78;49.88;99038.50;4937162;28;102602;-88
2021/10/26 03:13:53;;;;;;;;;16.25;14.50;;;;;15.75;49.46;99043.56;4949975;28;103426;-88
2021/10/26 03:16:20;;;;;;;;;18.75;14.00;;;;;15.76;49.47;99040.59;4943063;28;103926;-89
2021/10/26 03:18:47;;;;;;;;;20.50;18.25;;;;;15.77;49.32;99046.88;4949536;28;105705;-89
2021/10/26 03:21:14;;;;;;;;;18.00;13.25;;;;;15.76;49.45;99051.50;4949018;28;104733;-89
2021/10/26 03:23:41;;;;;;;;;14.50;13.25;;;;;15.77;49.56;99053.19;4946188;28;102956;-89
2021/10/26 03:26:08;;;;;;;;;16.50;15.00;;;;;15.76;49.14;99051.50;4945245;28;103176;-88
2021/10/26 03:28:35;;;;;;;;;19.50;17.25;;;;;15.75;49.56;99052.59;4947813;28;104061;-88
2021/10/26 03:31:04;;;;;;;;;17.00;15.00;;;;;15.75;49.26;99049.03;4953586;28;102184;-89
2021/10/26 03:33:31;;;;;;;;;16.50;14.75;;;;;15.74;49.32;99059.09;4947087;28;107233;-88
2021/10/26 03:36:04;;;;;;;;;14.00;12.75;;;;;15.72;49.34;99050.28;4950982;28;102239;-89
2021/10/26 03:38:34;;;;;;;;;18.00;16.00;;;;;15.71;49.28;99048.63;4950788;28;109008;-88
2021/10/26 03:41:01;;;;;;;;;21.25;18.00;;;;;15.69;49.00;99039.84;4945110;28;102162;-89
2021/10/26 03:43:28;;;;;;;;;18.25;15.75;;;;;15.68;49.30;99043.63;4946775;28;105813;-89
2021/10/26 03:45:55;;;;;;;;;20.50;18.00;;;;;15.67;49.30;99047.38;4924517;28;105985;-89
2021/10/26 03:48:22;;;;;;;;;18.25;15.75;;;;;15.67;49.41;99058.28;4947918;28;104101;-89
2021/10/26 03:50:50;;;;;;;;;18.75;16.75;;;;;15.66;49.78;99045.75;4945159;28;102139;-89
2021/10/26 03:53:18;;;;;;;;;21.00;16.75;;;;;15.66;49.45;99053.91;4952721;28;102588;-88
2021/10/26 03:55:45;;;;;;;;;19.75;14.00;;;;;15.64;49.38;99053.28;4951071;28;102220;-89
2021/10/26 03:58:12;;;;;;;;;19.50;16.00;;;;;15.64;49.14;99056.03;4955158;28;104248;-89
2021/10/26 04:00:39;;;;;;;;;14.50;14.50;;;;;15.63;49.41;99051.63;4956023;28;103409;-89
2021/10/26 04:03:06;;;;;;;;;12.75;11.50;;;;;15.63;49.25;99051.63;4956658;28;102504;-89
2021/10/26 04:05:42;;;;;;;;;19.00;15.00;;;;;15.61;49.27;99040.97;4958955;28;102375;-89
2021/10/26 04:08:22;;;;;;;;;19.75;16.00;;;;;15.62;49.16;99044.53;4950696;28;108892;-88
2021/10/26 04:10:56;;;;;;;;;17.50;16.75;;;;;15.62;49.15;99039.06;4957513;28;101974;-86
2021/10/26 04:13:23;;;;;;;;;12.75;9.75;;;;;15.62;49.29;99048.06;4946625;28;102736;-88
2021/10/26 04:15:50;;;;;;;;;16.50;15.50;;;;;15.64;49.58;99036.94;4952659;28;102214;-87
2021/10/26 04:18:17;;;;;;;;;19.25;15.25;;;;;15.62;49.47;99044.53;4955068;28;104033;-88
2021/10/26 04:20:44;;;;;;;;;18.25;17.25;;;;;15.60;49.16;99036.56;4956493;28;102604;-88
2021/10/26 04:23:11;;;;;;;;;22.00;16.50;;;;;15.59;48.69;99042.22;4943238;28;103566;-88
2021/10/26 04:25:39;;;;;;;;;19.25;18.00;;;;;15.60;48.33;99038.44;4937659;28;102325;-88
2021/10/26 04:28:06;;;;;;;;;18.50;15.75;;;;;15.58;49.25;99044.09;4947728;28;104089;-87
2021/10/26 04:30:34;;;;;;;;;20.50;17.50;;;;;15.59;48.95;99048.50;4951379;28;102352;-87
2021/10/26 04:33:02;;;;;;;;;19.00;17.00;;;;;15.59;48.78;99050.41;4937180;28;102189;-88
2021/10/26 04:35:29;;;;;;;;;20.00;18.00;;;;;15.58;49.01;99037.81;4947019;28;102260;-88
2021/10/26 04:37:56;;;;;;;;;16.50;14.75;;;;;15.56;48.78;99043.50;4954707;28;104047;-88
2021/10/26 04:40:23;;;;;;;;;26.25;20.50;;;;;15.57;48.99;99037.00;4956234;28;102149;-88
2021/10/26 04:42:51;;;;;;;;;19.75;18.25;;;;;15.55;49.09;99030.94;4951278;28;102461;-87
2021/10/26 04:48:58;;;;;;;;;20.75;18.75;;;;;15.53;49.14;99041.25;4952994;28;107405;-88
2021/10/26 04:51:25;;;;;;;;;17.25;15.25;;;;;15.51;48.92;99039.78;4957376;28;103097;-87
2021/10/26 04:53:52;;;;;;;;;20.75;18.75;;;;;15.49;48.94;99031.78;4945376;28;103682;-88
2021/10/26 04:56:19;;;;;;;;;15.75;14.25;;;;;15.48;49.07;99034.75;4939695;28;102549;-88
2021/10/26 04:58:46;;;;;;;;;17.00;16.00;;;;;15.46;49.17;99029.50;4949173;28;104271;-88
2021/10/26 05:01:13;;;;;;;;;22.50;18.75;;;;;15.45;49.15;99040.63;4943036;28;103609;-88
2021/10/26 05:03:42;;;;;;;;;18.00;14.25;;;;;15.46;49.04;99039.56;4951119;28;102293;-88
2021/10/26 05:06:09;;;;;;;;;20.25;17.50;;;;;15.46;48.96;99039.56;4944935;28;102495;-87
2021/10/26 05:08:36;;;;;;;;;20.25;16.00;;;;;15.47;48.96;99049.44;4952884;28;104051;-88
2021/10/26 05:11:03;;;;;;;;;21.75;18.00;;;;;15.45;48.90;99038.75;4953694;28;103042;-88
2021/10/26 05:13:32;;;;;;;;;18.25;17.50;;;;;15.45;49.09;99037.91;4951791;28;104806;-88
2021/10/26 05:15:59;;;;;;;;;18.50;17.50;;;;;15.45;48.85;99043.34;4951156;28;102246;-88
2021/10/26 05:18:29;;;;;;;;;18.75;18.25;;;;;15.45;48.95;99048.81;4946671;28;104246;-88
2021/10/26 05:20:59;;;;;;;;;19.25;17.25;;;;;15.44;48.85;99045.28;4949116;28;103795;-88
2021/10/26 05:23:26;;;;;;;;;16.75;16.75;;;;;15.42;48.65;99052.81;4954655;28;103445;-88
2021/10/26 05:25:53;;;;;;;;;21.00;19.00;;;;;15.42;49.02;99050.09;4947451;28;102433;-88
2021/10/26 05:28:20;;;;;;;;;22.25;20.00;;;;;15.42;48.77;99043.81;4952760;28;104893;-88
2021/10/26 05:30:47;;;;;;;;;19.50;18.00;;;;;15.39;48.73;99049.69;4953799;28;102606;-88
2021/10/26 05:33:14;;;;;;;;;19.75;18.00;;;;;15.39;48.79;99044.25;4946923;28;102446;-88
2021/10/26 05:35:41;;;;;;;;;24.00;20.00;;;;;15.39;48.89;99049.69;4935278;28;102583;-88
2021/10/26 05:38:08;;;;;;;;;19.00;17.25;;;;;15.39;49.00;99055.16;4954318;28;104179;-87
2021/10/26 05:40:36;;;;;;;;;19.25;16.75;;;;;15.38;48.99;99053.47;4947593;28;102382;-87
2021/10/26 05:43:03;;;;;;;;;22.75;18.00;;;;;15.36;49.01;99053.69;4955892;28;102728;-88
2021/10/26 05:45:30;;;;;;;;;20.50;17.50;;;;;15.37;48.87;99062.69;4949217;28;106023;-88
2021/10/26 05:47:57;;;;;;;;;20.75;20.00;;;;;15.35;49.03;99062.94;4952280;28;104101;-88
2021/10/26 05:50:24;;;;;;;;;21.00;18.00;;;;;15.35;48.76;99056.66;4956895;28;102452;-88
2021/10/26 05:52:51;;;;;;;;;23.50;20.75;;;;;15.35;48.69;99060.22;4955546;28;102600;-88
2021/10/26 05:55:18;;;;;;;;;17.75;14.00;;;;;15.36;48.66;99069.19;4951540;28;102455;-88
2021/10/26 05:57:44;;;;;;;;;14.00;12.25;;;;;15.36;48.67;99072.75;4957226;28;104304;-87
2021/10/26 06:00:12;;;;;;;;;17.50;16.75;;;;;15.36;48.60;99067.31;4956020;28;102369;-88
2021/10/26 06:02:39;;;;;;;;;21.00;19.25;;;;;15.35;48.48;99065.66;4932948;28;102946;-87
2021/10/26 06:05:07;;;;;;;;;16.25;12.25;;;;;15.35;48.99;99070.28;4953247;28;103795;-87
2021/10/26 06:07:34;;;;;;;;;19.00;15.25;;;;;15.34;48.62;99072.16;4959432;28;104040;-87
2021/10/26 06:10:01;;;;;;;;;20.00;19.25;;;;;15.33;49.17;99081.38;4958210;28;102238;-88
2021/10/26 06:12:31;;;;;;;;;21.50;20.00;;;;;15.35;48.62;99081.19;4940102;28;102377;-87
2021/10/26 06:14:58;;;;;;;;;20.50;18.00;;;;;15.35;48.79;99086.63;4955079;28;102681;-88
2021/10/26 06:17:25;;;;;;;;;18.25;17.75;;;;;15.33;48.95;99092.28;4954998;28;104106;-88
2021/10/26 06:19:52;;;;;;;;;22.50;20.75;;;;;15.34;48.52;99095.84;4953714;28;103270;-88
2021/10/26 06:22:19;;;;;;;;;21.00;19.00;;;;;15.32;48.62;99098.78;4955539;28;102209;-88
2021/10/26 06:24:48;;;;;;;;;22.25;20.75;;;;;15.30;48.96;99094.63;4953036;28;103744;-88
2021/10/26 06:27:15;;;;;;;;;23.75;19.75;;;;;15.32;48.57;99097.94;4951384;28;104056;-88
2021/10/26 06:29:42;;;;;;;;;20.75;18.00;;;;;15.32;48.57;99096.06;4955224;28;102185;-88
2021/10/26 06:32:09;;;;;;;;;22.75;19.25;;;;;15.31;48.75;99102.56;4951440;28;102190;-88
2021/10/26 06:34:36;;;;;;;;;22.50;17.00;;;;;15.31;48.68;99096.28;4954460;28;102187;-87
2021/10/26 06:37:03;;;;;;;;;20.50;19.50;;;;;15.32;48.88;99108.84;4940478;28;104104;-88
2021/10/26 06:39:30;;;;;;;;;25.75;21.00;;;;;15.32;48.55;99109.69;4960370;28;102567;-88
2021/10/26 06:41:57;;;;;;;;;18.75;17.75;;;;;15.33;48.55;99107.78;4951083;28;102361;-88
2021/10/26 06:44:24;;;;;;;;;20.00;18.75;;;;;15.34;48.37;99113.03;4949366;28;102292;-88
2021/10/26 06:46:51;;;;;;;;;20.00;19.25;;;;;15.33;48.35;99105.06;4953763;28;104184;-88
2021/10/26 06:49:18;;;;;;;;;23.00;19.75;;;;;15.33;48.54;99107.78;4956228;28;102348;-87
2021/10/26 06:51:45;;;;;;;;;23.25;19.50;;;;;15.33;48.35;99114.09;4961096;28;103200;-88
2021/10/26 06:54:12;;;;;;;;;25.25;20.50;;;;;15.33;48.37;99116.81;4935857;28;102506;-87
2021/10/26 06:56:39;;;;;;;;;24.75;20.00;;;;;15.34;48.36;99112.19;4953338;28;103972;-88
2021/10/26 06:59:06;;;;;;;;;21.75;20.50;;;;;15.34;48.42;99123.09;4955041;28;102631;-87
2021/10/26 07:01:33;;;;;;;;;22.25;19.75;;;;;15.34;48.18;99126.66;4963624;28;102260;-88
2021/10/26 07:04:00;;;;;;;;;21.50;19.75;;;;;15.34;48.30;99117.66;4947862;28;102748;-88
2021/10/26 07:06:27;;;;;;;;;28.75;23.00;;;;;15.33;48.18;99119.53;4954417;28;104284;-87
2021/10/26 07:08:54;;;;;;;;;20.75;20.00;;;;;15.35;48.48;99122.06;4954315;28;102122;-87
2021/10/26 07:11:21;;;;;;;;;21.00;20.50;;;;;15.34;48.39;99131.28;4945809;28;103555;-88
2021/10/26 07:13:49;;;;;;;;;24.00;19.75;;;;;15.35;48.34;99122.06;4952443;28;103347;-88
2021/10/26 07:16:16;;;;;;;;;21.00;17.25;;;;;15.35;48.05;99120.16;4933967;28;104335;-88
2021/10/26 07:18:43;;;;;;;;;22.75;20.00;;;;;15.36;48.24;99121.81;4951917;28;102461;-88
2021/10/26 07:21:12;;;;;;;;;21.75;20.25;;;;;15.37;48.11;99125.38;4949690;28;102258;-88
2021/10/26 07:23:39;;;;;;;;;22.00;18.75;;;;;15.38;48.23;99124.31;4952857;28;102537;-87
2021/10/26 07:26:07;;;;;;;;;30.50;23.75;;;;;15.39;47.97;99126.00;4949237;28;103033;-87
2021/10/26 07:28:34;;;;;;;;;22.50;19.25;;;;;15.38;48.14;99118.88;4958676;28;103120;-88
2021/10/26 07:31:02;;;;;;;;;26.00;21.25;;;;;15.37;48.35;99114.47;4951599;28;102388;-88
2021/10/26 07:33:32;;;;;;;;;23.00;20.75;;;;;15.40;48.25;99114.06;4944114;28;102766;-88
2021/10/26 07:36:03;;;;;;;;;23.00;20.25;;;;;15.40;48.08;99116.78;4949897;28;104035;-88
2021/10/26 07:38:33;;;;;;;;;22.75;21.50;;;;;15.41;47.96;99123.88;4958765;28;103626;-88
2021/10/26 07:41:02;;;;;;;;;22.25;20.00;;;;;15.39;48.08;99126.00;4950817;28;104374;-88
2021/10/26 07:43:30;;;;;;;;;23.00;20.25;;;;;15.41;47.94;99119.25;4956982;28;102408;-88
2021/10/26 07:45:57;;;;;;;;;25.25;22.50;;;;;15.41;48.13;99122.00;4935817;28;104086;-88
2021/10/26 07:48:24;;;;;;;;;22.50;20.25;;;;;15.42;47.97;99131.00;4952949;28;102388;-87
2021/10/26 07:50:54;;;;;;;;;24.25;21.00;;;;;15.43;48.12;99117.16;4952133;28;102658;-87
2021/10/26 07:53:21;;;;;;;;;25.25;22.50;;;;;15.44;48.21;99123.47;4954102;28;102669;-88
2021/10/26 07:55:48;;;;;;;;;25.50;20.00;;;;;15.43;47.82;99122.63;4953896;28;104389;-87
2021/10/26 07:58:16;;;;;;;;;27.00;23.50;;;;;15.41;47.82;99118.44;4950233;28;102385;-87
2021/10/26 08:00:44;;;;;;;;;21.75;20.25;;;;;15.43;48.04;99124.50;4952459;28;102588;-87
2021/10/26 08:03:12;;;;;;;;;19.00;17.00;;;;;15.44;47.94;99129.75;4936419;28;102664;-87
2021/10/26 08:05:39;;;;;;;;;27.25;24.50;;;;;15.46;47.96;99129.50;4928992;28;103917;-87
2021/10/26 08:08:07;;;;;;;;;21.75;19.75;;;;;15.45;48.08;99120.50;4950732;28;103925;-86
2021/10/26 08:10:34;;;;;;;;;19.25;18.75;;;;;15.44;47.98;99118.00;4950893;28;103526;-87
2021/10/26 08:13:01;;;;;;;;;22.00;19.75;;;;;15.47;48.07;99123.00;4935231;28;103682;-87
2021/10/26 08:15:28;;;;;;;;;20.25;19.75;;;;;15.47;47.95;99123.00;4963250;28;103973;-87
2021/10/26 08:17:56;;;;;;;;;25.25;21.25;;;;;15.48;47.77;99119.25;4956251;28;102283;-87
2021/10/26 08:20:23;;;;;;;;;23.75;18.25;;;;;15.48;48.25;99120.06;4948668;28;103075;-87
2021/10/26 08:22:50;;;;;;;;;26.00;18.75;;;;;15.49;48.07;99120.91;4957196;28;102785;-87
2021/10/26 08:25:23;;;;;;;;;23.00;20.25;;;;;15.51;48.28;99118.81;4951830;28;104068;-87
2021/10/26 08:27:52;;;;;;;;;24.75;20.25;;;;;15.50;47.79;99117.09;4950077;28;102393;-87
2021/10/26 08:30:46;;;;;;;;;20.00;12.00;;;;;15.50;47.70;99117.09;4952762;28;102577;-87
2021/10/26 08:35:50;;;;;;;;;22.25;19.00;;;;;15.51;47.96;99108.75;4933295;28;104425;-87
2021/10/26 08:38:17;;;;;;;;;21.00;19.50;;;;;15.52;47.73;99104.16;4950206;28;102825;-87
2021/10/26 08:40:47;;;;;;;;;24.50;21.50;;;;;15.52;47.78;99113.16;4952723;28;102633;-87
2021/10/26 08:43:19;;;;;;;;;21.00;19.25;;;;;15.52;47.80;99104.97;4946710;28;102465;-87
2021/10/26 08:45:48;;;;;;;;;29.50;23.00;;;;;15.55;47.53;99103.69;4937436;28;104628;-87
2021/10/26 08:48:20;;;;;;;;;22.75;21.00;;;;;15.56;47.53;99099.91;4949246;28;102197;-87
2021/10/26 08:50:52;;;;;;;;;22.75;20.50;;;;;15.55;47.94;99106.41;4949108;28;102420;-87
2021/10/26 08:53:20;;;;;;;;;20.50;18.50;;;;;15.56;47.94;99102.66;4948121;28;103148;-87
2021/10/26 08:55:59;;;;;;;;;21.50;18.00;;;;;15.56;47.43;99097.19;4955324;28;104094;-87
2021/10/26 08:58:27;;;;;;;;;20.50;17.00;;;;;15.57;47.82;99098.88;4946896;28;103579;-87
2021/10/26 09:00:55;;;;;;;;;18.00;15.25;;;;;15.57;47.93;99101.59;4933524;28;102544;-87
2021/10/26 09:03:24;;;;;;;;;19.00;17.75;;;;;15.58;47.67;99103.25;4956122;28;102471;-87
2021/10/26 09:05:52;;;;;;;;;20.25;19.25;;;;;15.57;48.03;99090.69;4937237;28;103917;-87
2021/10/26 09:08:23;;;;;;;;;25.25;20.00;;;;;15.58;47.56;99089.59;4952843;28;102484;-87
2021/10/26 09:10:50;;;;;;;;;21.75;19.75;;;;;15.59;47.92;99099.47;4954120;28;102107;-87
2021/10/26 09:19:18;;;;;;;;;19.25;17.75;;;;;15.59;47.46;99105.75;4936695;28;106074;-87
2021/10/26 09:22:02;;;;;;;;;22.00;18.00;;;;;15.59;47.33;99105.75;4927104;28;102666;-87
2021/10/26 09:24:29;;;;;;;;;19.00;18.00;;;;;15.59;47.91;99100.31;4951433;28;102635;-88
2021/10/26 09:27:01;;;;;;;;;22.00;20.50;;;;;15.60;47.83;99098.41;4956794;28;104051;-87
2021/10/26 09:29:28;;;;;;;;;21.00;18.50;;;;;15.60;47.78;99106.59;4950225;28;103421;-87
2021/10/26 09:32:13;;;;;;;;;22.50;20.75;;;;;15.61;47.65;99102.81;4935514;28;102333;-87
2021/10/26 09:34:51;;;;;;;;;19.00;17.50;;;;;15.61;47.88;99097.38;4942040;28;102501;-87
2021/10/26 09:37:18;;;;;;;;;19.50;18.50;;;;;15.61;47.83;99100.09;4937632;28;104043;-87
2021/10/26 09:39:55;;;;;;;;;20.75;17.25;;;;;15.62;47.87;99093.59;4934076;28;102444;-87
2021/10/26 09:42:27;;;;;;;;;20.00;17.75;;;;;15.60;47.96;99087.50;4963073;28;104533;-87
2021/10/26 09:45:01;;;;;;;;;21.75;18.50;;;;;15.60;47.81;99080.16;4931956;28;102531;-87
2021/10/26 09:47:30;;;;;;;;;21.75;18.50;;;;;15.61;47.85;99086.47;4917207;28;104136;-87
2021/10/26 09:49:59;;;;;;;;;17.75;17.50;;;;;15.61;47.86;99078.28;4952511;28;104648;-87
2021/10/26 09:52:36;;;;;;;;;18.50;17.00;;;;;15.61;47.62;99076.41;4937053;28;102638;-87
2021/10/26 09:55:23;;;;;;;;;15.75;15.50;;;;;15.62;47.84;99079.97;4952519;28;102737;-87
2021/10/26 09:57:57;;;;;;;;;17.00;17.00;;;;;15.63;48.00;99081.59;4952993;28;108842;-87
2021/10/26 10:00:29;;;;;;;;;16.50;15.25;;;;;15.61;47.79;99081.84;4957711;28;102429;-87
2021/10/26 10:03:05;;;;;;;;;23.00;17.00;;;;;15.61;47.35;99076.41;4951935;28;102611;-87
2021/10/26 10:05:33;;;;;;;;;18.25;15.00;;;;;15.62;47.63;99069.88;4949290;28;102616;-87
2021/10/26 10:08:20;;;;;;;;;20.75;18.00;;;;;15.62;47.85;99058.16;4960091;28;104099;-88
2021/10/26 10:11:15;;;;;;;;;14.75;14.00;;;;;15.62;47.71;99064.41;4932741;28;104736;-87
2021/10/26 10:13:51;;;;;;;;;17.25;16.25;;;;;15.62;47.62;99058.16;4926748;28;103577;-88
2021/10/26 10:16:20;;;;;;;;;24.00;19.25;;;;;15.63;48.09;99062.53;4936929;28;103383;-87
2021/10/26 10:18:54;;;;;;;;;19.25;17.25;;;;;15.63;47.68;99054.34;4952054;28;104090;-87
2021/10/26 10:21:25;;;;;;;;;21.25;17.75;;;;;15.61;47.62;99051.88;4954818;28;102505;-88
2021/10/26 10:23:54;;;;;;;;;24.25;19.75;;;;;15.62;47.88;99041.81;4950041;28;102564;-87
2021/10/26 10:26:23;;;;;;;;;19.75;16.75;;;;;15.63;48.05;99041.56;4959380;28;103978;-87
2021/10/26 10:28:50;;;;;;;;;18.00;17.00;;;;;15.64;47.38;99031.50;4953371;28;104243;-87
2021/10/26 10:31:20;;;;;;;;;16.75;16.50;;;;;15.64;47.55;99034.22;4923290;28;103071;-87
2021/10/26 10:33:48;;;;;;;;;18.25;16.25;;;;;15.64;47.49;99042.41;4943742;28;102515;-87
2021/10/26 10:36:24;;;;;;;;;18.50;16.50;;;;;15.65;47.78;99029.59;4955818;28;103446;-88
2021/10/26 10:38:55;;;;;;;;;17.25;15.75;;;;;15.65;47.92;99030.44;4936535;28;104329;-87
2021/10/26 10:41:34;;;;;;;;;14.50;14.00;;;;;15.66;47.48;99028.53;4941008;28;104106;-88
2021/10/26 10:44:02;;;;;;;;;19.75;18.00;;;;;15.64;47.82;99012.41;4957174;28;102368;-88
2021/10/26 10:47:01;;;;;;;;;16.75;16.25;;;;;15.65;47.63;99003.19;4922177;28;103384;-88
2021/10/26 10:49:35;;;;;;;;;17.50;16.00;;;;;15.65;47.38;99011.34;4942746;28;108825;-88
2021/10/26 10:52:10;;;;;;;;;20.00;17.50;;;;;15.64;47.68;99015.13;4950153;28;103453;-88
2021/10/26 10:54:37;;;;;;;;;19.25;17.00;;;;;15.65;47.28;99021.41;4956156;28;102396;-87
2021/10/26 10:57:32;;;;;;;;;21.00;18.75;;;;;15.66;47.42;99017.66;4951193;28;102258;-88
2021/10/26 11:00:03;;;;;;;;;21.00;16.75;;;;;15.67;47.47;99011.16;4940954;28;108899;-87
2021/10/26 11:02:36;;;;;;;;;17.50;17.00;;;;;15.67;47.43;99011.16;4937449;28;102571;-88
2021/10/26 11:05:04;;;;;;;;;22.00;19.00;;;;;15.67;47.76;99011.16;4934156;28;102404;-88
2021/10/26 11:07:44;;;;;;;;;25.50;17.50;;;;;15.68;47.83;99001.88;4955916;28;103132;-88
2021/10/26 11:10:15;;;;;;;;;17.25;14.00;;;;;15.68;48.15;99005.44;4943844;28;108948;-87
2021/10/26 11:12:46;;;;;;;;;15.75;15.25;;;;;15.68;47.75;99005.44;4940582;28;103008;-87
2021/10/26 11:15:19;;;;;;;;;17.50;16.50;;;;;15.68;47.31;99005.44;4913397;28;102227;-87
2021/10/26 11:17:49;;;;;;;;;19.75;16.00;;;;;15.69;47.79;98990.75;4892777;28;103887;-87
2021/10/26 11:20:26;;;;;;;;;17.00;15.25;;;;;15.69;47.44;98990.75;4913027;28;104270;-87
2021/10/26 11:23:05;;;;;;;;;18.00;15.75;;;;;15.71;47.39;98996.00;4909841;28;102602;-88
2021/10/26 11:25:37;;;;;;;;;18.25;16.25;;;;;15.70;47.10;98995.16;4916342;28;103168;-88
2021/10/26 11:28:11;;;;;;;;;19.75;15.25;;;;;15.71;47.91;98993.28;4923300;28;102489;-87
2021/10/26 11:30:45;;;;;;;;;16.00;14.25;;;;;15.70;47.87;98980.69;4915928;28;109138;-87